createdAt,value
2019-02-28T00:01:51.013Z,21.10
2019-02-28T00:06:55.137Z,21.13
2019-02-28T00:11:59.193Z,20.13
2019-02-28T00:17:06.227Z,18.33
2019-02-28T00:22:11.433Z,19.33
2019-02-28T00:27:15.167Z,23.20
2019-02-28T00:32:21.427Z,26.70
2019-02-28T00:37:25.742Z,26.53
2019-02-28T00:42:29.850Z,24.37
2019-02-28T00:47:34.352Z,21.20
2019-02-28T00:52:38.717Z,17.97
2019-02-28T00:57:43.242Z,14.83
2019-02-28T01:02:52.143Z,17.03
2019-02-28T01:07:53.348Z,17.17
2019-02-28T01:12:57.754Z,17.27
2019-02-28T01:18:01.817Z,17.17
2019-02-28T01:23:05.991Z,16.63
2019-02-28T01:28:10.222Z,18.33
2019-02-28T01:33:14.357Z,13.97
2019-02-28T01:38:18.627Z,12.13
2019-02-28T01:43:28.528Z,6.67
2019-02-28T01:48:28.683Z,8.50
2019-02-28T01:53:32.906Z,9.10
2019-02-28T01:58:37.077Z,7.43
2019-02-28T02:03:41.766Z,6.80
2019-02-28T02:08:46.057Z,7.33
2019-02-28T02:13:50.362Z,7.07
2019-02-28T02:18:54.602Z,6.83
2019-02-28T02:23:58.917Z,6.40
2019-02-28T02:29:03.134Z,6.83
2019-02-28T02:34:07.471Z,6.37
2019-02-28T02:39:16.355Z,6.90
2019-02-28T02:44:17.584Z,7.37
2019-02-28T02:49:21.798Z,7.33
2019-02-28T02:54:26.005Z,7.37
2019-02-28T02:59:37.269Z,6.70
2019-02-28T03:04:36.024Z,5.60
2019-02-28T03:09:43.298Z,5.23
2019-02-28T03:14:48.790Z,5.83
2019-02-28T03:19:52.211Z,7.43
2019-02-28T03:24:56.378Z,6.87
2019-02-28T03:30:00.864Z,7.67
2019-02-28T03:35:05.817Z,5.80
2019-02-28T03:40:10.380Z,6.50
2019-02-28T03:45:15.588Z,5.53
2019-02-28T03:50:21.917Z,6.07
2019-02-28T03:55:25.797Z,6.10
2019-02-28T04:00:34.027Z,4.17
2019-02-28T04:05:36.245Z,3.63
2019-02-28T04:10:40.456Z,3.20
2019-02-28T04:16:01.326Z,3.80
2019-02-28T04:20:50.862Z,4.13
2019-02-28T04:25:56.785Z,5.33
2019-02-28T04:31:00.883Z,4.10
2019-02-28T04:36:05.166Z,4.97
2019-02-28T04:41:09.409Z,5.83
2019-02-28T04:46:13.527Z,7.33
2019-02-28T04:51:17.662Z,4.87
2019-02-28T04:56:21.903Z,4.80
2019-02-28T05:01:26.391Z,5.07
2019-02-28T05:06:31.598Z,4.77
2019-02-28T05:11:35.904Z,4.37
2019-02-28T05:16:40.150Z,4.90
2019-02-28T05:21:44.317Z,5.87
2019-02-28T05:26:48.522Z,4.93
2019-02-28T05:31:52.831Z,5.00
2019-02-28T05:36:57.046Z,4.30
2019-02-28T05:42:01.182Z,4.30
2019-02-28T05:47:05.417Z,5.50
2019-02-28T05:52:09.612Z,5.90
2019-02-28T05:57:13.881Z,5.53
2019-02-28T06:02:22.400Z,7.00
2019-02-28T06:07:25.924Z,6.87
2019-02-28T06:12:30.601Z,6.57
2019-02-28T06:17:35.004Z,7.90
2019-02-28T06:22:39.194Z,8.70
2019-02-28T06:27:49.063Z,8.57
2019-02-28T06:32:49.419Z,3.93
2019-02-28T06:37:53.667Z,6.37
2019-02-28T06:42:57.994Z,3.37
2019-02-28T06:48:02.012Z,8.00
2019-02-28T06:53:06.192Z,9.47
2019-02-28T06:58:10.211Z,7.87
2019-02-28T07:03:14.607Z,8.13
2019-02-28T07:08:20.680Z,8.27
2019-02-28T07:13:24.801Z,9.20
2019-02-28T07:18:29.061Z,9.27
2019-02-28T07:23:33.577Z,8.63
2019-02-28T07:28:37.846Z,9.00
2019-02-28T07:33:44.533Z,10.13
2019-02-28T07:38:47.853Z,11.33
2019-02-28T07:43:52.137Z,9.37
2019-02-28T07:48:56.421Z,4.53
2019-02-28T07:54:01.620Z,3.30
2019-02-28T07:59:06.377Z,0.90
2019-02-28T08:04:10.857Z,1.20
2019-02-28T08:09:25.435Z,1.30
2019-02-28T08:14:29.596Z,2.07
2019-02-28T08:19:34.963Z,2.57
2019-02-28T08:24:39.286Z,1.53
2019-02-28T08:29:45.749Z,1.20
2019-02-28T08:34:49.186Z,1.60
2019-02-28T08:39:54.637Z,1.70
2019-02-28T08:44:59.196Z,1.83
2019-02-28T08:50:03.574Z,2.47
2019-02-28T08:55:10.048Z,5.30
2019-02-28T09:00:16.646Z,4.60
2019-02-28T09:05:25.512Z,4.57
2019-02-28T09:10:27.141Z,4.07
2019-02-28T09:15:31.466Z,4.50
2019-02-28T09:20:35.919Z,4.67
2019-02-28T09:25:40.112Z,5.37
2019-02-28T09:30:44.313Z,5.23
2019-02-28T09:35:50.803Z,6.10
2019-02-28T09:40:55.098Z,5.63
2019-02-28T09:45:59.263Z,6.80
2019-02-28T09:51:04.013Z,5.93
2019-02-28T09:56:09.274Z,5.90
2019-02-28T10:01:14.097Z,6.27
2019-02-28T10:06:18.525Z,7.63
2019-02-28T10:11:22.589Z,7.27
2019-02-28T10:16:26.996Z,7.93
2019-02-28T10:21:33.308Z,8.30
2019-02-28T10:26:37.277Z,6.80
2019-02-28T10:31:41.346Z,9.03
2019-02-28T10:36:47.772Z,8.20
2019-02-28T10:41:51.521Z,7.23
2019-02-28T10:46:55.817Z,7.97
2019-02-28T10:51:59.958Z,6.93
2019-02-28T10:57:06.133Z,7.03
2019-02-28T11:02:10.228Z,7.70
2019-02-28T11:07:14.459Z,7.83
2019-02-28T11:12:20.311Z,6.03
2019-02-28T11:17:24.722Z,7.03
2019-02-28T11:22:28.902Z,5.27
2019-02-28T11:27:33.232Z,4.73
2019-02-28T11:32:37.574Z,5.23
2019-02-28T11:37:42.308Z,5.73
2019-02-28T11:42:47.918Z,6.63
2019-02-28T11:47:53.368Z,6.73
2019-02-28T11:53:03.283Z,6.93
2019-02-28T11:58:03.787Z,7.23
2019-02-28T12:03:08.377Z,7.57
2019-02-28T12:08:12.742Z,7.00
2019-02-28T12:13:19.687Z,5.90
2019-02-28T12:18:22.872Z,5.40
2019-02-28T12:23:27.087Z,6.57
2019-02-28T12:28:35.270Z,5.83
2019-02-28T12:33:39.954Z,6.10
2019-02-28T12:38:44.184Z,6.43
2019-02-28T12:43:48.570Z,5.40
2019-02-28T12:48:53.030Z,7.33
2019-02-28T12:53:59.205Z,5.10
2019-02-28T12:59:03.495Z,5.23
2019-02-28T13:04:07.737Z,5.30
2019-02-28T13:09:13.583Z,5.10
2019-02-28T13:14:17.787Z,5.50
2019-02-28T13:19:24.136Z,4.80
2019-02-28T13:24:27.991Z,4.63
2019-02-28T13:29:33.929Z,4.63
2019-02-28T13:34:38.575Z,6.20
2019-02-28T13:39:44.715Z,5.77
2019-02-28T13:44:51.813Z,5.33
2019-02-28T13:49:55.992Z,6.43
2019-02-28T13:55:00.581Z,5.50
2019-02-28T14:00:09.347Z,5.87
2019-02-28T14:05:13.669Z,5.93
2019-02-28T14:10:18.041Z,6.43
2019-02-28T14:15:25.270Z,6.60
2019-02-28T14:20:29.781Z,5.73
2019-02-28T14:25:36.225Z,6.77
2019-02-28T14:30:39.851Z,6.00
2019-02-28T14:35:45.022Z,7.43
2019-02-28T14:40:49.648Z,5.97
2019-02-28T14:45:55.402Z,5.60
2019-02-28T14:50:59.527Z,6.33
2019-02-28T15:01:16.810Z,6.27
2019-02-28T15:06:20.282Z,7.10
2019-02-28T15:11:25.661Z,6.60
2019-02-28T15:16:30.461Z,8.63
2019-02-28T15:21:34.882Z,5.93
2019-02-28T15:26:39.369Z,6.10
2019-02-28T15:31:44.270Z,5.87
2019-02-28T15:36:48.542Z,7.27
2019-02-28T15:41:52.927Z,6.50
2019-02-28T15:46:57.101Z,5.40
2019-02-28T15:52:01.907Z,6.23
2019-02-28T15:57:07.558Z,5.97
2019-02-28T16:02:11.888Z,5.70
2019-02-28T16:07:18.783Z,5.80
2019-02-28T16:12:23.140Z,5.40
2019-02-28T16:17:27.453Z,4.90
2019-02-28T16:22:31.734Z,6.77
2019-02-28T16:27:42.603Z,3.47
2019-02-28T16:32:49.134Z,4.47
2019-02-28T16:37:52.773Z,3.93
2019-02-28T16:42:57.105Z,3.70
2019-02-28T16:48:02.984Z,4.10
2019-02-28T16:53:07.302Z,4.30
2019-02-28T16:58:11.533Z,5.80
2019-02-28T17:03:16.001Z,7.67
2019-02-28T17:08:20.440Z,6.80
2019-02-28T17:13:25.713Z,6.00
2019-02-28T17:18:30.029Z,5.40
2019-02-28T17:23:37.016Z,5.67
2019-02-28T17:28:40.489Z,5.67
2019-02-28T17:33:46.905Z,5.30
2019-02-28T17:38:51.033Z,5.23
2019-02-28T17:44:13.193Z,4.73
2019-02-28T17:49:30.287Z,4.27
2019-02-28T17:54:57.377Z,3.70
2019-02-28T18:00:29.230Z,6.03
2019-02-28T18:05:51.921Z,6.03
2019-02-28T18:11:17.116Z,6.80
2019-02-28T18:16:39.952Z,5.60
2019-02-28T18:21:52.738Z,6.17
2019-02-28T18:27:22.917Z,4.70
2019-02-28T18:32:29.794Z,7.50
2019-02-28T18:37:33.098Z,5.90
2019-02-28T18:42:37.277Z,5.60
2019-02-28T18:47:41.412Z,5.27
2019-02-28T18:52:48.133Z,4.20
2019-02-28T18:57:52.440Z,5.63
2019-02-28T19:02:56.657Z,4.10
2019-02-28T19:08:00.849Z,4.73
2019-02-28T19:13:05.322Z,4.90
2019-02-28T19:18:09.729Z,4.20
2019-02-28T19:23:14.087Z,5.77
2019-02-28T19:28:18.267Z,5.97
2019-02-28T19:33:22.463Z,6.40
2019-02-28T19:38:26.522Z,6.77
2019-02-28T19:43:30.990Z,5.53
2019-02-28T19:48:35.138Z,5.30
2019-02-28T19:53:39.325Z,5.70
2019-02-28T19:58:43.817Z,6.50
2019-02-28T20:03:49.069Z,6.93
2019-02-28T20:08:53.498Z,6.30
2019-02-28T20:13:57.812Z,5.07
2019-02-28T20:19:02.163Z,5.80
2019-02-28T20:24:07.509Z,3.60
2019-02-28T20:29:11.889Z,6.07
2019-02-28T20:34:16.257Z,5.90
2019-02-28T20:39:20.597Z,4.10
2019-02-28T20:44:24.930Z,5.90
2019-02-28T20:49:29.192Z,5.03
2019-02-28T20:54:33.717Z,3.97
2019-02-28T20:59:37.941Z,4.33
2019-02-28T21:04:42.147Z,5.43
2019-02-28T21:09:46.303Z,6.07
2019-02-28T21:14:50.437Z,7.43
2019-02-28T21:19:55.899Z,5.40
2019-02-28T21:25:00.288Z,5.47
2019-02-28T21:30:07.067Z,5.30
2019-02-28T21:35:11.667Z,6.33
2019-02-28T21:40:16.398Z,5.37
2019-02-28T21:45:20.942Z,5.87
2019-02-28T21:50:25.167Z,5.60
2019-02-28T21:55:29.497Z,4.83
2019-02-28T22:00:33.727Z,4.83
2019-02-28T22:05:38.115Z,5.07
2019-02-28T22:10:42.601Z,6.27
2019-02-28T22:15:46.763Z,6.27
2019-02-28T22:20:52.198Z,6.53
2019-02-28T22:25:56.422Z,5.70
2019-02-28T22:31:00.897Z,6.53
2019-02-28T22:36:05.499Z,6.20
2019-02-28T22:41:09.637Z,6.03
2019-02-28T22:46:13.797Z,7.57
2019-02-28T22:51:17.934Z,6.63
2019-02-28T22:56:22.257Z,6.40
2019-02-28T23:01:26.848Z,6.00
2019-02-28T23:06:31.082Z,7.03
2019-02-28T23:11:35.302Z,8.80
2019-02-28T23:16:39.637Z,8.17
2019-02-28T23:21:43.870Z,7.67
2019-02-28T23:27:05.097Z,6.93
2019-02-28T23:32:23.179Z,7.17
2019-02-28T23:37:27.380Z,7.50
2019-02-28T23:42:31.516Z,7.47
2019-02-28T23:47:35.952Z,7.80
2019-02-28T23:52:40.116Z,8.77
2019-02-28T23:57:44.463Z,7.80
